Terminal Aerodrome Forecast
Issued by NWS Lake Charles, LA

Home | Current Version | Previous Version | Text Only | Print | Product List | Glossary On
Versions: 1 2 3 4 5 6 7 8 9 10 11 12 13 14 15
000
FTUS44 KLCH 300500
TAFLCH
TAF
KLCH 300532Z 3006/3106 32006KT P6SM SCT100 BKN250
     FM300800 36012KT P6SM BKN250
     FM301300 04014KT P6SM SCT250
     FM310000 06006KT P6SM SCT250=

USA.gov is the U.S. government's official web portal to all federal, state and local government web resources and services.